sensor_id;sensor_type;location;lat;lon;timestamp;P1;durP1;ratioP1;P2;durP2;ratioP2
26756;SDS011;23848;49.798;10.228;2024-01-15T00:02:27;34.33;;;12.57;;
26756;SDS011;23848;49.798;10.228;2024-01-15T00:04:56;32.85;;;11.77;;
26756;SDS011;23848;49.798;10.228;2024-01-15T00:07:24;22.63;;;9.98;;
26756;SDS011;23848;49.798;10.228;2024-01-15T00:09:53;31.48;;;10.93;;
26756;SDS011;23848;49.798;10.228;2024-01-15T00:12:21;31.80;;;11.23;;
26756;SDS011;23848;49.798;10.228;2024-01-15T00:14:50;34.72;;;11.05;;
26756;SDS011;23848;49.798;10.228;2024-01-15T00:17:18;28.65;;;12.00;;
26756;SDS011;23848;49.798;10.228;2024-01-15T00:19:48;29.65;;;11.40;;
26756;SDS011;23848;49.798;10.228;2024-01-15T00:22:16;28.50;;;10.00;;
26756;SDS011;23848;49.798;10.228;2024-01-15T00:24:45;25.77;;;9.68;;
26756;SDS011;23848;49.798;10.228;2024-01-15T00:27:14;24.55;;;10.00;;
26756;SDS011;23848;49.798;10.228;2024-01-15T00:29:42;26.40;;;10.23;;
26756;SDS011;23848;49.798;10.228;2024-01-15T00:32:10;25.05;;;9.88;;
26756;SDS011;23848;49.798;10.228;2024-01-15T00:34:39;29.58;;;10.88;;
26756;SDS011;23848;49.798;10.228;2024-01-15T00:37:09;24.98;;;9.30;;
26756;SDS011;23848;49.798;10.228;2024-01-15T00:39:37;28.52;;;11.23;;
26756;SDS011;23848;49.798;10.228;2024-01-15T00:42:06;32.80;;;10.30;;
26756;SDS011;23848;49.798;10.228;2024-01-15T00:44:34;26.60;;;10.68;;
26756;SDS011;23848;49.798;10.228;2024-01-15T00:47:03;31.80;;;10.95;;
26756;SDS011;23848;49.798;10.228;2024-01-15T00:49:31;30.23;;;12.55;;
26756;SDS011;23848;49.798;10.228;2024-01-15T00:52:00;25.90;;;9.73;;
26756;SDS011;23848;49.798;10.228;2024-01-15T00:54:29;26.75;;;10.70;;
26756;SDS011;23848;49.798;10.228;2024-01-15T00:56:58;28.42;;;9.98;;
26756;SDS011;23848;49.798;10.228;2024-01-15T00:59:26;24.95;;;11.63;;
26756;SDS011;23848;49.798;10.228;2024-01-15T01:01:55;30.45;;;11.45;;
26756;SDS011;23848;49.798;10.228;2024-01-15T01:04:23;25.83;;;10.50;;
26756;SDS011;23848;49.798;10.228;2024-01-15T01:06:51;28.48;;;11.13;;
26756;SDS011;23848;49.798;10.228;2024-01-15T01:09:20;27.25;;;9.98;;
26756;SDS011;23848;49.798;10.228;2024-01-15T01:11:50;28.52;;;12.02;;
26756;SDS011;23848;49.798;10.228;2024-01-15T01:14:21;28.90;;;11.02;;
26756;SDS011;23848;49.798;10.228;2024-01-15T01:16:49;30.75;;;11.02;;
26756;SDS011;23848;49.798;10.228;2024-01-15T01:19:17;27.55;;;12.20;;
26756;SDS011;23848;49.798;10.228;2024-01-15T01:21:49;25.83;;;9.95;;
26756;SDS011;23848;49.798;10.228;2024-01-15T01:24:18;24.10;;;10.48;;
26756;SDS011;23848;49.798;10.228;2024-01-15T01:26:47;24.48;;;10.85;;
26756;SDS011;23848;49.798;10.228;2024-01-15T01:29:17;27.40;;;10.07;;
26756;SDS011;23848;49.798;10.228;2024-01-15T01:31:45;30.60;;;10.93;;
26756;SDS011;23848;49.798;10.228;2024-01-15T01:34:14;25.92;;;10.35;;
26756;SDS011;23848;49.798;10.228;2024-01-15T01:36:43;21.40;;;9.65;;
26756;SDS011;23848;49.798;10.228;2024-01-15T01:39:12;28.48;;;9.05;;
26756;SDS011;23848;49.798;10.228;2024-01-15T01:41:40;20.73;;;8.02;;
26756;SDS011;23848;49.798;10.228;2024-01-15T01:44:09;28.52;;;9.93;;
26756;SDS011;23848;49.798;10.228;2024-01-15T01:46:38;20.88;;;10.30;;
26756;SDS011;23848;49.798;10.228;2024-01-15T01:49:07;23.73;;;10.57;;
26756;SDS011;23848;49.798;10.228;2024-01-15T01:51:36;21.67;;;9.48;;
26756;SDS011;23848;49.798;10.228;2024-01-15T01:54:06;21.08;;;8.95;;
26756;SDS011;23848;49.798;10.228;2024-01-15T01:56:39;19.27;;;8.13;;
26756;SDS011;23848;49.798;10.228;2024-01-15T01:59:07;18.58;;;7.95;;
26756;SDS011;23848;49.798;10.228;2024-01-15T02:01:39;27.65;;;10.70;;
26756;SDS011;23848;49.798;10.228;2024-01-15T02:04:08;26.30;;;10.27;;
26756;SDS011;23848;49.798;10.228;2024-01-15T02:06:36;19.85;;;8.15;;
26756;SDS011;23848;49.798;10.228;2024-01-15T02:09:05;24.17;;;9.43;;
26756;SDS011;23848;49.798;10.228;2024-01-15T02:11:34;27.98;;;10.50;;
26756;SDS011;23848;49.798;10.228;2024-01-15T02:14:02;24.73;;;9.88;;
26756;SDS011;23848;49.798;10.228;2024-01-15T02:16:31;20.92;;;8.40;;
26756;SDS011;23848;49.798;10.228;2024-01-15T02:19:01;22.02;;;8.40;;
26756;SDS011;23848;49.798;10.228;2024-01-15T02:21:29;22.75;;;8.90;;
26756;SDS011;23848;49.798;10.228;2024-01-15T02:23:59;17.80;;;8.63;;
26756;SDS011;23848;49.798;10.228;2024-01-15T02:26:27;20.42;;;8.23;;
26756;SDS011;23848;49.798;10.228;2024-01-15T02:28:56;22.75;;;9.75;;
26756;SDS011;23848;49.798;10.228;2024-01-15T02:31:24;20.65;;;9.30;;
26756;SDS011;23848;49.798;10.228;2024-01-15T02:33:53;20.80;;;8.70;;
26756;SDS011;23848;49.798;10.228;2024-01-15T02:36:21;21.73;;;9.73;;
26756;SDS011;23848;49.798;10.228;2024-01-15T02:38:50;18.52;;;7.40;;
26756;SDS011;23848;49.798;10.228;2024-01-15T02:41:20;23.45;;;8.18;;
26756;SDS011;23848;49.798;10.228;2024-01-15T02:43:48;22.52;;;9.82;;
26756;SDS011;23848;49.798;10.228;2024-01-15T02:46:17;17.02;;;8.25;;
26756;SDS011;23848;49.798;10.228;2024-01-15T02:48:45;18.10;;;8.27;;
26756;SDS011;23848;49.798;10.228;2024-01-15T02:51:14;18.65;;;7.60;;
26756;SDS011;23848;49.798;10.228;2024-01-15T02:53:42;18.83;;;8.85;;
26756;SDS011;23848;49.798;10.228;2024-01-15T02:56:10;20.70;;;8.65;;
26756;SDS011;23848;49.798;10.228;2024-01-15T02:58:40;21.13;;;8.38;;
26756;SDS011;23848;49.798;10.228;2024-01-15T03:01:08;17.35;;;7.60;;
26756;SDS011;23848;49.798;10.228;2024-01-15T03:03:37;17.02;;;8.15;;
26756;SDS011;23848;49.798;10.228;2024-01-15T03:06:06;21.73;;;7.88;;
26756;SDS011;23848;49.798;10.228;2024-01-15T03:08:35;19.10;;;7.97;;
26756;SDS011;23848;49.798;10.228;2024-01-15T03:11:03;19.27;;;8.13;;
26756;SDS011;23848;49.798;10.228;2024-01-15T03:13:34;21.65;;;7.80;;
26756;SDS011;23848;49.798;10.228;2024-01-15T03:16:05;17.67;;;8.10;;
26756;SDS011;23848;49.798;10.228;2024-01-15T03:18:34;21.38;;;8.60;;
26756;SDS011;23848;49.798;10.228;2024-01-15T03:21:02;17.75;;;7.95;;
26756;SDS011;23848;49.798;10.228;2024-01-15T03:23:31;23.92;;;10.23;;
26756;SDS011;23848;49.798;10.228;2024-01-15T03:26:00;19.83;;;8.63;;
26756;SDS011;23848;49.798;10.228;2024-01-15T03:28:29;14.00;;;7.22;;
26756;SDS011;23848;49.798;10.228;2024-01-15T03:30:57;16.35;;;7.93;;
26756;SDS011;23848;49.798;10.228;2024-01-15T03:33:27;17.48;;;7.50;;
26756;SDS011;23848;49.798;10.228;2024-01-15T03:35:58;17.88;;;9.32;;
26756;SDS011;23848;49.798;10.228;2024-01-15T03:38:28;15.00;;;7.57;;
26756;SDS011;23848;49.798;10.228;2024-01-15T03:40:56;19.83;;;8.35;;
26756;SDS011;23848;49.798;10.228;2024-01-15T03:43:25;20.27;;;6.65;;
26756;SDS011;23848;49.798;10.228;2024-01-15T03:45:54;19.35;;;8.68;;
26756;SDS011;23848;49.798;10.228;2024-01-15T03:48:23;20.13;;;7.70;;
26756;SDS011;23848;49.798;10.228;2024-01-15T03:50:53;21.98;;;8.35;;
26756;SDS011;23848;49.798;10.228;2024-01-15T03:53:21;16.73;;;8.35;;
26756;SDS011;23848;49.798;10.228;2024-01-15T03:55:50;20.58;;;7.40;;
26756;SDS011;23848;49.798;10.228;2024-01-15T03:58:18;17.92;;;7.40;;
26756;SDS011;23848;49.798;10.228;2024-01-15T04:00:47;18.73;;;7.75;;
26756;SDS011;23848;49.798;10.228;2024-01-15T04:03:15;18.20;;;7.95;;
26756;SDS011;23848;49.798;10.228;2024-01-15T04:05:44;16.75;;;7.70;;
26756;SDS011;23848;49.798;10.228;2024-01-15T04:08:15;16.90;;;8.30;;
26756;SDS011;23848;49.798;10.228;2024-01-15T04:10:43;18.67;;;7.35;;
26756;SDS011;23848;49.798;10.228;2024-01-15T04:13:12;18.33;;;7.53;;
26756;SDS011;23848;49.798;10.228;2024-01-15T04:15:43;16.33;;;8.13;;
26756;SDS011;23848;49.798;10.228;2024-01-15T04:18:12;19.63;;;8.02;;
26756;SDS011;23848;49.798;10.228;2024-01-15T04:20:40;15.68;;;7.57;;
26756;SDS011;23848;49.798;10.228;2024-01-15T04:23:10;16.45;;;8.32;;
26756;SDS011;23848;49.798;10.228;2024-01-15T04:25:41;20.42;;;8.02;;
26756;SDS011;23848;49.798;10.228;2024-01-15T04:28:09;19.02;;;7.78;;
26756;SDS011;23848;49.798;10.228;2024-01-15T04:30:39;18.50;;;8.73;;
26756;SDS011;23848;49.798;10.228;2024-01-15T04:33:08;19.02;;;8.60;;
26756;SDS011;23848;49.798;10.228;2024-01-15T04:35:37;18.83;;;8.10;;
26756;SDS011;23848;49.798;10.228;2024-01-15T04:38:07;16.30;;;7.85;;
26756;SDS011;23848;49.798;10.228;2024-01-15T04:40:36;16.40;;;6.32;;
26756;SDS011;23848;49.798;10.228;2024-01-15T04:43:06;14.75;;;7.22;;
26756;SDS011;23848;49.798;10.228;2024-01-15T04:45:34;18.50;;;8.45;;
26756;SDS011;23848;49.798;10.228;2024-01-15T04:48:03;19.90;;;8.48;;
26756;SDS011;23848;49.798;10.228;2024-01-15T04:50:31;15.90;;;7.45;;
26756;SDS011;23848;49.798;10.228;2024-01-15T04:53:00;19.23;;;7.60;;
26756;SDS011;23848;49.798;10.228;2024-01-15T04:55:29;19.52;;;8.93;;
26756;SDS011;23848;49.798;10.228;2024-01-15T04:57:57;20.73;;;7.97;;
26756;SDS011;23848;49.798;10.228;2024-01-15T05:00:27;13.65;;;6.78;;
26756;SDS011;23848;49.798;10.228;2024-01-15T05:02:58;15.00;;;6.15;;
26756;SDS011;23848;49.798;10.228;2024-01-15T05:05:26;20.88;;;9.10;;
26756;SDS011;23848;49.798;10.228;2024-01-15T05:07:54;19.63;;;7.72;;
26756;SDS011;23848;49.798;10.228;2024-01-15T05:10:23;16.65;;;7.57;;
26756;SDS011;23848;49.798;10.228;2024-01-15T05:12:51;16.85;;;7.53;;
26756;SDS011;23848;49.798;10.228;2024-01-15T05:15:20;18.05;;;7.22;;
26756;SDS011;23848;49.798;10.228;2024-01-15T05:17:50;17.63;;;8.40;;
26756;SDS011;23848;49.798;10.228;2024-01-15T05:20:19;20.30;;;8.32;;
26756;SDS011;23848;49.798;10.228;2024-01-15T05:22:47;15.73;;;7.72;;
26756;SDS011;23848;49.798;10.228;2024-01-15T05:25:16;18.23;;;8.60;;
26756;SDS011;23848;49.798;10.228;2024-01-15T05:27:44;16.15;;;7.85;;
26756;SDS011;23848;49.798;10.228;2024-01-15T05:30:18;18.20;;;8.88;;
26756;SDS011;23848;49.798;10.228;2024-01-15T05:32:47;22.95;;;8.80;;
26756;SDS011;23848;49.798;10.228;2024-01-15T05:35:16;19.75;;;8.02;;
26756;SDS011;23848;49.798;10.228;2024-01-15T05:37:45;20.20;;;9.13;;
26756;SDS011;23848;49.798;10.228;2024-01-15T05:40:24;21.92;;;9.98;;
26756;SDS011;23848;49.798;10.228;2024-01-15T05:42:54;19.83;;;9.15;;
26756;SDS011;23848;49.798;10.228;2024-01-15T05:45:25;18.65;;;6.90;;
26756;SDS011;23848;49.798;10.228;2024-01-15T05:47:54;18.35;;;8.25;;
26756;SDS011;23848;49.798;10.228;2024-01-15T05:50:24;21.30;;;9.95;;
26756;SDS011;23848;49.798;10.228;2024-01-15T05:52:52;15.95;;;7.53;;
26756;SDS011;23848;49.798;10.228;2024-01-15T05:55:32;21.83;;;7.65;;
26756;SDS011;23848;49.798;10.228;2024-01-15T05:58:00;21.23;;;9.80;;
26756;SDS011;23848;49.798;10.228;2024-01-15T06:00:29;19.75;;;9.05;;
26756;SDS011;23848;49.798;10.228;2024-01-15T06:02:59;21.33;;;9.23;;
26756;SDS011;23848;49.798;10.228;2024-01-15T06:05:29;21.63;;;9.90;;
26756;SDS011;23848;49.798;10.228;2024-01-15T06:07:58;20.20;;;8.98;;
26756;SDS011;23848;49.798;10.228;2024-01-15T06:10:27;20.38;;;8.00;;
26756;SDS011;23848;49.798;10.228;2024-01-15T06:12:55;16.30;;;8.38;;
26756;SDS011;23848;49.798;10.228;2024-01-15T06:15:24;15.63;;;7.65;;
26756;SDS011;23848;49.798;10.228;2024-01-15T06:17:52;20.13;;;9.30;;
26756;SDS011;23848;49.798;10.228;2024-01-15T06:20:21;21.48;;;9.00;;
26756;SDS011;23848;49.798;10.228;2024-01-15T06:22:50;20.90;;;8.40;;
26756;SDS011;23848;49.798;10.228;2024-01-15T06:25:19;19.08;;;8.10;;
26756;SDS011;23848;49.798;10.228;2024-01-15T06:27:47;23.70;;;10.05;;
26756;SDS011;23848;49.798;10.228;2024-01-15T06:30:16;20.77;;;7.72;;
26756;SDS011;23848;49.798;10.228;2024-01-15T06:32:44;19.35;;;9.05;;
26756;SDS011;23848;49.798;10.228;2024-01-15T06:35:13;21.52;;;9.52;;
26756;SDS011;23848;49.798;10.228;2024-01-15T06:37:48;17.35;;;8.38;;
26756;SDS011;23848;49.798;10.228;2024-01-15T06:40:18;19.13;;;7.05;;
26756;SDS011;23848;49.798;10.228;2024-01-15T06:42:46;17.98;;;8.80;;
26756;SDS011;23848;49.798;10.228;2024-01-15T06:45:15;15.82;;;9.13;;
26756;SDS011;23848;49.798;10.228;2024-01-15T06:47:43;18.35;;;8.95;;
26756;SDS011;23848;49.798;10.228;2024-01-15T06:50:12;18.13;;;9.55;;
26756;SDS011;23848;49.798;10.228;2024-01-15T06:52:40;19.95;;;8.63;;
26756;SDS011;23848;49.798;10.228;2024-01-15T06:55:09;15.02;;;7.93;;
26756;SDS011;23848;49.798;10.228;2024-01-15T06:57:39;18.60;;;7.88;;
26756;SDS011;23848;49.798;10.228;2024-01-15T07:00:07;17.60;;;7.57;;
26756;SDS011;23848;49.798;10.228;2024-01-15T07:02:36;19.65;;;9.32;;
26756;SDS011;23848;49.798;10.228;2024-01-15T07:05:05;21.60;;;8.68;;
26756;SDS011;23848;49.798;10.228;2024-01-15T07:07:37;15.85;;;7.50;;
26756;SDS011;23848;49.798;10.228;2024-01-15T07:10:06;17.58;;;7.60;;
26756;SDS011;23848;49.798;10.228;2024-01-15T07:12:35;20.65;;;8.10;;
26756;SDS011;23848;49.798;10.228;2024-01-15T07:15:05;16.02;;;8.32;;
26756;SDS011;23848;49.798;10.228;2024-01-15T07:17:34;19.58;;;7.75;;
26756;SDS011;23848;49.798;10.228;2024-01-15T07:20:06;20.08;;;7.22;;
26756;SDS011;23848;49.798;10.228;2024-01-15T07:22:35;15.50;;;6.57;;
26756;SDS011;23848;49.798;10.228;2024-01-15T07:25:04;18.35;;;8.93;;
26756;SDS011;23848;49.798;10.228;2024-01-15T07:27:34;18.98;;;7.07;;
26756;SDS011;23848;49.798;10.228;2024-01-15T07:30:06;16.55;;;7.43;;
26756;SDS011;23848;49.798;10.228;2024-01-15T07:32:35;21.65;;;8.77;;
26756;SDS011;23848;49.798;10.228;2024-01-15T07:35:04;14.48;;;6.25;;
26756;SDS011;23848;49.798;10.228;2024-01-15T07:37:33;15.88;;;8.38;;
26756;SDS011;23848;49.798;10.228;2024-01-15T07:40:02;15.57;;;7.30;;
26756;SDS011;23848;49.798;10.228;2024-01-15T07:42:32;16.60;;;8.38;;
26756;SDS011;23848;49.798;10.228;2024-01-15T07:45:03;20.70;;;7.60;;
26756;SDS011;23848;49.798;10.228;2024-01-15T07:47:34;16.25;;;7.30;;
26756;SDS011;23848;49.798;10.228;2024-01-15T07:50:05;15.48;;;6.55;;
26756;SDS011;23848;49.798;10.228;2024-01-15T07:52:33;18.13;;;8.07;;
26756;SDS011;23848;49.798;10.228;2024-01-15T07:55:04;14.88;;;6.50;;
26756;SDS011;23848;49.798;10.228;2024-01-15T07:57:32;17.98;;;8.40;;
26756;SDS011;23848;49.798;10.228;2024-01-15T08:00:02;20.60;;;7.75;;
26756;SDS011;23848;49.798;10.228;2024-01-15T08:02:31;14.43;;;7.00;;
26756;SDS011;23848;49.798;10.228;2024-01-15T08:05:04;13.77;;;7.00;;
26756;SDS011;23848;49.798;10.228;2024-01-15T08:07:33;18.27;;;7.07;;
26756;SDS011;23848;49.798;10.228;2024-01-15T08:10:01;15.52;;;7.50;;
26756;SDS011;23848;49.798;10.228;2024-01-15T08:12:30;14.75;;;7.40;;
26756;SDS011;23848;49.798;10.228;2024-01-15T08:14:59;16.38;;;6.95;;
26756;SDS011;23848;49.798;10.228;2024-01-15T08:17:27;17.02;;;7.30;;
26756;SDS011;23848;49.798;10.228;2024-01-15T08:19:55;17.42;;;8.02;;
26756;SDS011;23848;49.798;10.228;2024-01-15T08:22:26;15.43;;;8.32;;
26756;SDS011;23848;49.798;10.228;2024-01-15T08:24:57;18.80;;;8.23;;
26756;SDS011;23848;49.798;10.228;2024-01-15T08:27:26;20.35;;;9.02;;
26756;SDS011;23848;49.798;10.228;2024-01-15T08:29:54;17.55;;;8.15;;
26756;SDS011;23848;49.798;10.228;2024-01-15T08:32:23;19.40;;;7.55;;
26756;SDS011;23848;49.798;10.228;2024-01-15T08:34:51;17.42;;;8.10;;
26756;SDS011;23848;49.798;10.228;2024-01-15T08:37:19;16.05;;;7.05;;
26756;SDS011;23848;49.798;10.228;2024-01-15T08:39:49;16.42;;;8.13;;
26756;SDS011;23848;49.798;10.228;2024-01-15T08:42:18;14.93;;;6.97;;
26756;SDS011;23848;49.798;10.228;2024-01-15T08:44:46;17.95;;;7.53;;
26756;SDS011;23848;49.798;10.228;2024-01-15T08:47:32;16.60;;;6.97;;
26756;SDS011;23848;49.798;10.228;2024-01-15T08:50:01;20.48;;;8.55;;
26756;SDS011;23848;49.798;10.228;2024-01-15T08:52:30;20.30;;;8.55;;
26756;SDS011;23848;49.798;10.228;2024-01-15T08:55:00;15.93;;;7.60;;
26756;SDS011;23848;49.798;10.228;2024-01-15T08:57:28;15.07;;;6.80;;
26756;SDS011;23848;49.798;10.228;2024-01-15T08:59:57;17.58;;;7.22;;
26756;SDS011;23848;49.798;10.228;2024-01-15T09:02:26;17.38;;;7.75;;
26756;SDS011;23848;49.798;10.228;2024-01-15T09:04:58;16.42;;;8.00;;
26756;SDS011;23848;49.798;10.228;2024-01-15T09:07:27;15.48;;;8.10;;
26756;SDS011;23848;49.798;10.228;2024-01-15T09:09:55;18.92;;;8.30;;
26756;SDS011;23848;49.798;10.228;2024-01-15T09:12:27;14.52;;;7.22;;
26756;SDS011;23848;49.798;10.228;2024-01-15T09:14:56;15.38;;;7.18;;
26756;SDS011;23848;49.798;10.228;2024-01-15T09:17:24;16.77;;;7.30;;
26756;SDS011;23848;49.798;10.228;2024-01-15T09:19:54;14.82;;;7.47;;
26756;SDS011;23848;49.798;10.228;2024-01-15T09:22:23;21.05;;;8.45;;
26756;SDS011;23848;49.798;10.228;2024-01-15T09:24:52;13.52;;;6.40;;
26756;SDS011;23848;49.798;10.228;2024-01-15T09:27:21;15.95;;;7.50;;
26756;SDS011;23848;49.798;10.228;2024-01-15T09:29:50;19.05;;;8.18;;
26756;SDS011;23848;49.798;10.228;2024-01-15T09:32:19;18.83;;;8.00;;
26756;SDS011;23848;49.798;10.228;2024-01-15T09:34:47;17.20;;;8.68;;
26756;SDS011;23848;49.798;10.228;2024-01-15T09:37:16;17.05;;;8.38;;
26756;SDS011;23848;49.798;10.228;2024-01-15T09:40:03;15.95;;;8.23;;
26756;SDS011;23848;49.798;10.228;2024-01-15T09:42:33;14.05;;;6.60;;
26756;SDS011;23848;49.798;10.228;2024-01-15T09:45:04;16.52;;;8.68;;
26756;SDS011;23848;49.798;10.228;2024-01-15T09:47:32;16.83;;;8.18;;
26756;SDS011;23848;49.798;10.228;2024-01-15T09:50:01;15.13;;;8.07;;
26756;SDS011;23848;49.798;10.228;2024-01-15T09:52:30;17.05;;;7.03;;
26756;SDS011;23848;49.798;10.228;2024-01-15T09:54:58;16.50;;;7.18;;
26756;SDS011;23848;49.798;10.228;2024-01-15T09:57:28;16.20;;;7.30;;
26756;SDS011;23848;49.798;10.228;2024-01-15T09:59:57;18.73;;;7.95;;
26756;SDS011;23848;49.798;10.228;2024-01-15T10:02:29;15.75;;;8.27;;
26756;SDS011;23848;49.798;10.228;2024-01-15T10:14:29;15.05;;;7.57;;
26756;SDS011;23848;49.798;10.228;2024-01-15T11:50:26;12.60;;;6.70;;
26756;SDS011;23848;49.798;10.228;2024-01-15T11:56:15;12.63;;;6.25;;
26756;SDS011;23848;49.798;10.228;2024-01-15T15:22:44;10.20;;;4.75;;
26756;SDS011;23848;49.798;10.228;2024-01-15T15:25:31;9.00;;;4.50;;
26756;SDS011;23848;49.798;10.228;2024-01-15T15:28:12;11.98;;;5.70;;
26756;SDS011;23848;49.798;10.228;2024-01-15T15:31:06;8.18;;;3.60;;
26756;SDS011;23848;49.798;10.228;2024-01-15T15:33:45;10.18;;;4.53;;
26756;SDS011;23848;49.798;10.228;2024-01-15T15:36:22;8.80;;;4.65;;
26756;SDS011;23848;49.798;10.228;2024-01-15T15:39:18;8.00;;;4.60;;
26756;SDS011;23848;49.798;10.228;2024-01-15T15:42:06;7.95;;;3.97;;
26756;SDS011;23848;49.798;10.228;2024-01-15T15:44:46;7.95;;;4.43;;
26756;SDS011;23848;49.798;10.228;2024-01-15T15:47:30;6.47;;;3.42;;
26756;SDS011;23848;49.798;10.228;2024-01-15T15:50:16;9.52;;;5.25;;
26756;SDS011;23848;49.798;10.228;2024-01-15T15:53:03;7.82;;;4.15;;
26756;SDS011;23848;49.798;10.228;2024-01-15T15:55:42;7.43;;;4.03;;
26756;SDS011;23848;49.798;10.228;2024-01-15T15:58:26;8.65;;;4.70;;
26756;SDS011;23848;49.798;10.228;2024-01-15T16:01:18;8.40;;;4.43;;
26756;SDS011;23848;49.798;10.228;2024-01-15T16:04:09;7.85;;;3.75;;
26756;SDS011;23848;49.798;10.228;2024-01-15T16:06:50;6.10;;;3.63;;
26756;SDS011;23848;49.798;10.228;2024-01-15T16:09:25;9.38;;;4.57;;
26756;SDS011;23848;49.798;10.228;2024-01-15T16:12:11;6.80;;;3.70;;
26756;SDS011;23848;49.798;10.228;2024-01-15T16:25:49;7.35;;;4.50;;
26756;SDS011;23848;49.798;10.228;2024-01-15T16:28:26;7.00;;;4.10;;
26756;SDS011;23848;49.798;10.228;2024-01-15T16:30:59;10.27;;;5.10;;
26756;SDS011;23848;49.798;10.228;2024-01-15T16:33:36;8.23;;;4.03;;
26756;SDS011;23848;49.798;10.228;2024-01-15T16:36:24;7.90;;;3.70;;
26756;SDS011;23848;49.798;10.228;2024-01-15T16:38:56;7.88;;;4.13;;
26756;SDS011;23848;49.798;10.228;2024-01-15T16:41:30;7.40;;;3.97;;
26756;SDS011;23848;49.798;10.228;2024-01-15T16:44:02;8.45;;;3.42;;
26756;SDS011;23848;49.798;10.228;2024-01-15T16:46:44;14.60;;;6.68;;
26756;SDS011;23848;49.798;10.228;2024-01-15T16:49:15;12.13;;;6.25;;
26756;SDS011;23848;49.798;10.228;2024-01-15T16:51:52;9.00;;;4.80;;
26756;SDS011;23848;49.798;10.228;2024-01-15T16:54:23;11.13;;;5.63;;
26756;SDS011;23848;49.798;10.228;2024-01-15T16:56:58;6.88;;;4.15;;
26756;SDS011;23848;49.798;10.228;2024-01-15T16:59:34;8.00;;;4.32;;
26756;SDS011;23848;49.798;10.228;2024-01-15T17:02:12;7.20;;;4.00;;
26756;SDS011;23848;49.798;10.228;2024-01-15T17:04:41;7.57;;;4.57;;
26756;SDS011;23848;49.798;10.228;2024-01-15T17:07:23;5.75;;;3.92;;
26756;SDS011;23848;49.798;10.228;2024-01-15T17:09:52;8.77;;;4.75;;
26756;SDS011;23848;49.798;10.228;2024-01-15T17:12:33;8.40;;;4.28;;
26756;SDS011;23848;49.798;10.228;2024-01-15T17:15:13;10.02;;;4.63;;
26756;SDS011;23848;49.798;10.228;2024-01-15T17:17:52;9.75;;;4.03;;
26756;SDS011;23848;49.798;10.228;2024-01-15T17:20:21;7.18;;;3.85;;
26756;SDS011;23848;49.798;10.228;2024-01-15T17:23:23;7.03;;;3.85;;
26756;SDS011;23848;49.798;10.228;2024-01-15T17:28:51;9.35;;;3.67;;
26756;SDS011;23848;49.798;10.228;2024-01-15T17:31:46;7.32;;;4.03;;
26756;SDS011;23848;49.798;10.228;2024-01-15T17:34:31;7.45;;;4.28;;
26756;SDS011;23848;49.798;10.228;2024-01-15T17:37:08;8.38;;;4.72;;
26756;SDS011;23848;49.798;10.228;2024-01-15T17:39:56;6.72;;;4.05;;
26756;SDS011;23848;49.798;10.228;2024-01-15T17:42:34;8.18;;;4.15;;
26756;SDS011;23848;49.798;10.228;2024-01-15T17:45:10;8.57;;;4.50;;
26756;SDS011;23848;49.798;10.228;2024-01-15T17:47:42;9.23;;;4.82;;
26756;SDS011;23848;49.798;10.228;2024-01-15T17:50:25;6.95;;;3.90;;
26756;SDS011;23848;49.798;10.228;2024-01-15T17:55:22;9.98;;;4.65;;
26756;SDS011;23848;49.798;10.228;2024-01-15T18:00:33;7.30;;;4.00;;
26756;SDS011;23848;49.798;10.228;2024-01-15T18:03:07;7.60;;;3.28;;
26756;SDS011;23848;49.798;10.228;2024-01-15T18:05:51;5.88;;;3.70;;
26756;SDS011;23848;49.798;10.228;2024-01-15T18:08:20;7.97;;;3.83;;
26756;SDS011;23848;49.798;10.228;2024-01-15T18:10:53;8.18;;;3.60;;
26756;SDS011;23848;49.798;10.228;2024-01-15T18:13:25;6.40;;;3.22;;
26756;SDS011;23848;49.798;10.228;2024-01-15T18:15:58;4.93;;;3.13;;
26756;SDS011;23848;49.798;10.228;2024-01-15T18:18:55;5.80;;;3.40;;
26756;SDS011;23848;49.798;10.228;2024-01-15T18:21:57;7.63;;;3.30;;
26756;SDS011;23848;49.798;10.228;2024-01-15T18:24:34;8.68;;;3.03;;
26756;SDS011;23848;49.798;10.228;2024-01-15T18:27:09;5.88;;;3.65;;
26756;SDS011;23848;49.798;10.228;2024-01-15T18:30:12;6.00;;;3.50;;
26756;SDS011;23848;49.798;10.228;2024-01-15T18:33:14;5.20;;;3.15;;
26756;SDS011;23848;49.798;10.228;2024-01-15T18:35:55;6.03;;;3.63;;
26756;SDS011;23848;49.798;10.228;2024-01-15T18:38:24;6.38;;;3.40;;
26756;SDS011;23848;49.798;10.228;2024-01-15T18:40:52;5.75;;;3.22;;
26756;SDS011;23848;49.798;10.228;2024-01-15T18:43:21;5.10;;;3.22;;
26756;SDS011;23848;49.798;10.228;2024-01-15T18:45:51;7.28;;;3.28;;
26756;SDS011;23848;49.798;10.228;2024-01-15T18:48:22;6.22;;;2.70;;
26756;SDS011;23848;49.798;10.228;2024-01-15T18:50:50;4.82;;;2.67;;
26756;SDS011;23848;49.798;10.228;2024-01-15T18:53:19;6.60;;;2.85;;
26756;SDS011;23848;49.798;10.228;2024-01-15T18:55:48;5.30;;;2.85;;
26756;SDS011;23848;49.798;10.228;2024-01-15T18:58:16;4.57;;;2.33;;
26756;SDS011;23848;49.798;10.228;2024-01-15T19:00:44;4.28;;;2.63;;
26756;SDS011;23848;49.798;10.228;2024-01-15T19:03:13;5.75;;;2.97;;
26756;SDS011;23848;49.798;10.228;2024-01-15T19:05:43;5.80;;;3.03;;
26756;SDS011;23848;49.798;10.228;2024-01-15T19:08:12;6.40;;;3.35;;
26756;SDS011;23848;49.798;10.228;2024-01-15T19:10:40;8.60;;;3.45;;
26756;SDS011;23848;49.798;10.228;2024-01-15T19:13:09;5.68;;;2.90;;
26756;SDS011;23848;49.798;10.228;2024-01-15T19:15:38;5.85;;;2.97;;
26756;SDS011;23848;49.798;10.228;2024-01-15T19:18:07;4.88;;;2.50;;
26756;SDS011;23848;49.798;10.228;2024-01-15T19:20:35;4.75;;;2.75;;
26756;SDS011;23848;49.798;10.228;2024-01-15T19:23:05;5.55;;;2.83;;
26756;SDS011;23848;49.798;10.228;2024-01-15T19:25:34;7.10;;;2.92;;
26756;SDS011;23848;49.798;10.228;2024-01-15T19:28:03;6.95;;;3.50;;
26756;SDS011;23848;49.798;10.228;2024-01-15T19:30:32;4.15;;;2.67;;
26756;SDS011;23848;49.798;10.228;2024-01-15T19:33:00;4.72;;;2.50;;
26756;SDS011;23848;49.798;10.228;2024-01-15T19:35:29;7.60;;;3.17;;
26756;SDS011;23848;49.798;10.228;2024-01-15T19:37:58;4.28;;;2.75;;
26756;SDS011;23848;49.798;10.228;2024-01-15T19:40:29;5.47;;;3.38;;
26756;SDS011;23848;49.798;10.228;2024-01-15T19:42:58;6.00;;;2.70;;
26756;SDS011;23848;49.798;10.228;2024-01-15T19:45:27;6.85;;;2.78;;
26756;SDS011;23848;49.798;10.228;2024-01-15T19:47:56;5.22;;;2.60;;
26756;SDS011;23848;49.798;10.228;2024-01-15T19:50:24;4.20;;;2.42;;
26756;SDS011;23848;49.798;10.228;2024-01-15T19:52:53;4.20;;;2.63;;
26756;SDS011;23848;49.798;10.228;2024-01-15T19:55:21;4.95;;;2.63;;
26756;SDS011;23848;49.798;10.228;2024-01-15T19:57:51;6.22;;;3.22;;
26756;SDS011;23848;49.798;10.228;2024-01-15T20:00:19;6.03;;;3.08;;
26756;SDS011;23848;49.798;10.228;2024-01-15T20:02:48;7.90;;;3.30;;
26756;SDS011;23848;49.798;10.228;2024-01-15T20:05:16;5.80;;;3.03;;
26756;SDS011;23848;49.798;10.228;2024-01-15T20:07:45;6.47;;;2.53;;
26756;SDS011;23848;49.798;10.228;2024-01-15T20:10:14;5.65;;;2.75;;
26756;SDS011;23848;49.798;10.228;2024-01-15T20:12:43;6.68;;;3.60;;
26756;SDS011;23848;49.798;10.228;2024-01-15T20:15:13;5.28;;;2.85;;
26756;SDS011;23848;49.798;10.228;2024-01-15T20:17:42;6.90;;;3.08;;